createdAt,value
2018-10-01T00:00:38.676Z,8.45
2018-10-01T00:01:38.644Z,8.36
2018-10-01T00:02:38.611Z,8.30
2018-10-01T00:03:38.580Z,8.35
2018-10-01T00:04:38.552Z,8.29
2018-10-01T00:05:38.516Z,8.22
2018-10-01T00:06:38.485Z,8.15
2018-10-01T00:07:38.453Z,8.18
2018-10-01T00:08:38.421Z,8.15
2018-10-01T00:09:38.390Z,8.15
2018-10-01T00:10:38.357Z,8.14
2018-10-01T00:11:38.326Z,8.03
2018-10-01T00:12:38.295Z,7.99
2018-10-01T00:13:39.110Z,8.02
2018-10-01T00:14:38.233Z,8.00
2018-10-01T00:15:39.109Z,8.04
2018-10-01T00:16:38.168Z,7.94
2018-10-01T00:17:38.134Z,8.08
2018-10-01T00:18:38.106Z,8.08
2018-10-01T00:19:38.072Z,8.03
2018-10-01T00:20:38.040Z,8.10
2018-10-01T00:21:38.008Z,8.08
2018-10-01T00:22:37.976Z,8.10
2018-10-01T00:23:37.945Z,8.11
2018-10-01T00:24:37.912Z,8.10
2018-10-01T00:25:37.883Z,8.15
2018-10-01T00:26:37.851Z,8.26
2018-10-01T00:27:37.818Z,8.26
2018-10-01T00:28:37.786Z,8.28
2018-10-01T00:29:37.758Z,8.18
2018-10-01T00:30:37.725Z,8.17
2018-10-01T00:31:37.692Z,8.20
2018-10-01T00:32:37.660Z,8.20
2018-10-01T00:33:37.628Z,8.25
2018-10-01T00:34:37.596Z,8.20
2018-10-01T00:35:37.564Z,8.28
2018-10-01T00:36:37.533Z,8.21
2018-10-01T00:37:37.500Z,8.12
2018-10-01T00:38:37.475Z,8.21
2018-10-01T00:39:37.438Z,8.12
2018-10-01T00:40:37.407Z,8.12
2018-10-01T00:41:37.376Z,8.10
2018-10-01T00:42:37.343Z,8.08
2018-10-01T00:43:37.310Z,8.11
2018-10-01T00:44:37.280Z,8.03
2018-10-01T00:45:37.247Z,8.07
2018-10-01T00:46:37.218Z,7.99
2018-10-01T00:47:37.183Z,7.97
2018-10-01T00:48:37.152Z,8.00
2018-10-01T00:49:37.122Z,7.89
2018-10-01T00:50:37.090Z,8.08
2018-10-01T00:51:37.057Z,8.07
2018-10-01T00:52:37.026Z,8.18
2018-10-01T00:53:36.994Z,8.22
2018-10-01T00:54:36.965Z,8.28
2018-10-01T00:55:36.932Z,8.40
2018-10-01T00:56:36.899Z,8.37
2018-10-01T00:57:36.869Z,8.39
2018-10-01T00:58:36.840Z,8.45
2018-10-01T00:59:36.809Z,8.39
2018-10-01T01:00:36.772Z,8.42
2018-10-01T01:01:36.741Z,8.40
2018-10-01T01:02:36.711Z,8.33
2018-10-01T01:03:36.679Z,8.54
2018-10-01T01:04:36.646Z,8.48
2018-10-01T01:05:36.616Z,8.55
2018-10-01T01:06:36.585Z,8.58
2018-10-01T01:07:36.553Z,8.69
2018-10-01T01:08:36.521Z,8.69
2018-10-01T01:09:36.490Z,8.72
2018-10-01T01:10:36.457Z,8.75
2018-10-01T01:11:36.427Z,8.75
2018-10-01T01:12:36.395Z,8.75
2018-10-01T01:13:36.364Z,8.75
2018-10-01T01:14:36.335Z,8.73
2018-10-01T01:15:36.302Z,8.75
2018-10-01T01:16:36.269Z,8.83
2018-10-01T01:17:36.239Z,8.76
2018-10-01T01:18:36.207Z,8.83
2018-10-01T01:19:36.172Z,8.75
2018-10-01T01:20:36.146Z,8.75
2018-10-01T01:21:36.113Z,8.78
2018-10-01T01:22:36.081Z,8.87
2018-10-01T01:23:36.052Z,8.79
2018-10-01T01:24:36.021Z,8.84
2018-10-01T01:25:35.989Z,8.86
2018-10-01T01:26:35.957Z,8.88
2018-10-01T01:27:35.927Z,8.91
2018-10-01T01:28:35.895Z,8.78
2018-10-01T01:29:35.864Z,8.84
2018-10-01T01:30:35.831Z,8.78
2018-10-01T01:31:35.802Z,8.81
2018-10-01T01:32:35.770Z,8.88
2018-10-01T01:33:35.740Z,8.90
2018-10-01T01:34:35.706Z,8.90
2018-10-01T01:35:35.676Z,8.90
2018-10-01T01:36:35.644Z,9.02
2018-10-01T01:37:35.614Z,8.97
2018-10-01T01:38:35.581Z,9.05
2018-10-01T01:39:35.550Z,9.10
2018-10-01T01:40:35.521Z,9.10
2018-10-01T01:41:35.490Z,9.20
2018-10-01T01:42:35.459Z,9.15
2018-10-01T01:43:35.427Z,9.15
2018-10-01T01:44:35.397Z,9.25
2018-10-01T01:45:35.365Z,9.24
2018-10-01T01:46:35.335Z,9.21
2018-10-01T01:47:35.303Z,9.27
2018-10-01T01:48:35.273Z,9.23
2018-10-01T01:49:35.241Z,9.27
2018-10-01T01:50:35.211Z,9.31
2018-10-01T01:51:35.177Z,9.25
2018-10-01T01:52:35.148Z,9.30
2018-10-01T01:53:35.117Z,9.27
2018-10-01T01:54:35.088Z,9.21
2018-10-01T01:55:35.058Z,9.34
2018-10-01T01:56:35.026Z,9.34
2018-10-01T01:57:34.999Z,9.30
2018-10-01T01:58:34.964Z,9.39
2018-10-01T01:59:34.933Z,9.39
2018-10-01T02:00:34.903Z,9.38
2018-10-01T02:01:34.871Z,9.40
2018-10-01T02:02:34.839Z,9.46
2018-10-01T02:03:34.807Z,9.43
2018-10-01T02:04:34.777Z,9.39
2018-10-01T02:05:34.745Z,9.50
2018-10-01T02:06:34.715Z,9.57
2018-10-01T02:07:34.685Z,9.58
2018-10-01T02:08:34.654Z,9.60
2018-10-01T02:09:34.622Z,9.66
2018-10-01T02:10:34.594Z,9.66
2018-10-01T02:11:34.562Z,9.78
2018-10-01T02:12:34.530Z,9.76
2018-10-01T02:13:34.501Z,9.83
2018-10-01T02:14:34.472Z,9.79
2018-10-01T02:15:34.440Z,9.83
2018-10-01T02:16:34.406Z,9.89
2018-10-01T02:17:34.377Z,9.93
2018-10-01T02:18:34.346Z,9.81
2018-10-01T02:19:34.316Z,9.96
2018-10-01T02:20:34.286Z,9.93
2018-10-01T02:21:34.261Z,9.78
2018-10-01T02:22:34.227Z,9.91
2018-10-01T02:23:34.194Z,9.85
2018-10-01T02:24:34.164Z,9.89
2018-10-01T02:25:34.132Z,9.89
2018-10-01T02:26:34.102Z,9.96
2018-10-01T02:27:34.070Z,9.96
2018-10-01T02:28:34.039Z,9.97
2018-10-01T02:29:34.012Z,9.91
2018-10-01T02:30:33.979Z,10.01
2018-10-01T02:31:33.947Z,9.94
2018-10-01T02:32:33.917Z,9.96
2018-10-01T02:33:33.890Z,9.94
2018-10-01T02:34:33.857Z,9.88
2018-10-01T02:35:33.822Z,9.93
2018-10-01T02:36:33.796Z,10.00
2018-10-01T02:37:33.764Z,9.94
2018-10-01T02:38:33.737Z,9.93
2018-10-01T02:39:33.707Z,9.93
2018-10-01T02:40:33.673Z,9.96
2018-10-01T02:41:33.644Z,9.96
2018-10-01T02:42:33.612Z,9.93
2018-10-01T02:43:33.581Z,9.94
2018-10-01T02:44:33.553Z,9.94
2018-10-01T02:45:33.520Z,10.03
2018-10-01T02:46:33.489Z,9.99
2018-10-01T02:47:33.501Z,10.01
2018-10-01T02:48:33.428Z,9.99
2018-10-01T02:49:33.398Z,10.00
2018-10-01T02:50:33.366Z,10.00
2018-10-01T02:51:33.335Z,9.93
2018-10-01T02:52:33.304Z,10.03
2018-10-01T02:53:33.276Z,10.12
2018-10-01T02:54:33.245Z,10.00
2018-10-01T02:55:33.213Z,10.12
2018-10-01T02:56:33.183Z,10.10
2018-10-01T02:57:33.151Z,10.06
2018-10-01T02:58:33.121Z,10.14
2018-10-01T02:59:33.091Z,10.04
2018-10-01T03:00:33.059Z,10.10
2018-10-01T03:01:33.030Z,10.17
2018-10-01T03:02:33.000Z,10.17
2018-10-01T03:03:32.968Z,10.15
2018-10-01T03:04:32.937Z,10.12
2018-10-01T03:05:32.909Z,10.17
2018-10-01T03:06:32.878Z,10.15
2018-10-01T03:07:32.845Z,10.19
2018-10-01T03:08:32.816Z,10.19
2018-10-01T03:09:32.784Z,10.19
2018-10-01T03:10:32.755Z,10.30
2018-10-01T03:11:32.723Z,10.28
2018-10-01T03:12:32.692Z,10.25
2018-10-01T03:13:32.664Z,10.28
2018-10-01T03:14:32.634Z,10.28
2018-10-01T03:15:32.602Z,10.36
2018-10-01T03:16:32.570Z,10.28
2018-10-01T03:17:32.541Z,10.26
2018-10-01T03:18:32.510Z,10.33
2018-10-01T03:19:32.482Z,10.32
2018-10-01T03:20:32.449Z,10.32
2018-10-01T03:21:32.418Z,10.36
2018-10-01T03:22:32.388Z,10.44
2018-10-01T03:23:32.356Z,10.53
2018-10-01T03:24:32.328Z,10.51
2018-10-01T03:25:32.296Z,10.44
2018-10-01T03:26:32.268Z,10.43
2018-10-01T03:27:32.236Z,10.43
2018-10-01T03:28:32.205Z,10.42
2018-10-01T03:29:32.175Z,10.33
2018-10-01T03:30:32.145Z,10.32
2018-10-01T03:31:32.112Z,10.34
2018-10-01T03:32:32.082Z,10.40
2018-10-01T03:33:32.054Z,10.42
2018-10-01T03:34:32.024Z,10.34
2018-10-01T03:35:31.992Z,10.32
2018-10-01T03:36:31.961Z,10.40
2018-10-01T03:37:31.932Z,10.34
2018-10-01T03:38:31.902Z,10.30
2018-10-01T03:39:31.870Z,10.32
2018-10-01T03:40:31.846Z,10.42
2018-10-01T03:41:31.809Z,10.28
2018-10-01T03:42:31.780Z,10.32
2018-10-01T03:43:31.751Z,10.25
2018-10-01T03:44:31.720Z,10.21
2018-10-01T03:45:31.688Z,10.19
2018-10-01T03:46:31.659Z,10.15
2018-10-01T03:47:31.625Z,10.17
2018-10-01T03:48:31.599Z,10.22
2018-10-01T03:49:31.566Z,10.19
2018-10-01T03:50:31.536Z,10.12
2018-10-01T03:51:32.138Z,10.07
2018-10-01T03:52:31.473Z,10.12
2018-10-01T03:53:31.445Z,10.10
2018-10-01T03:54:31.413Z,10.12
2018-10-01T03:55:31.381Z,10.17
2018-10-01T03:56:31.350Z,10.09
2018-10-01T03:57:31.322Z,10.22
2018-10-01T03:58:31.290Z,10.18
2018-10-01T03:59:31.260Z,10.17
2018-10-01T04:00:31.234Z,10.15
2018-10-01T04:01:31.200Z,10.12
2018-10-01T04:02:32.139Z,10.17
2018-10-01T04:03:31.137Z,10.09
2018-10-01T04:04:31.106Z,10.09
2018-10-01T04:05:31.076Z,10.10
2018-10-01T04:06:31.048Z,10.15
2018-10-01T04:07:31.013Z,10.15
2018-10-01T04:08:30.983Z,10.14
2018-10-01T04:09:30.953Z,10.17
2018-10-01T04:10:30.921Z,10.10
2018-10-01T04:11:30.892Z,10.15
2018-10-01T04:12:30.860Z,10.09
2018-10-01T04:13:31.641Z,10.12
2018-10-01T04:14:30.801Z,10.14
2018-10-01T04:15:30.770Z,10.07
2018-10-01T04:16:30.742Z,10.09
2018-10-01T04:17:30.708Z,10.06
2018-10-01T04:18:30.677Z,10.09
2018-10-01T04:19:30.645Z,10.07
2018-10-01T04:20:30.617Z,9.99
2018-10-01T04:21:30.585Z,10.03
2018-10-01T04:22:30.550Z,10.03
2018-10-01T04:23:30.524Z,10.01
2018-10-01T04:24:30.492Z,9.99
2018-10-01T04:25:30.469Z,9.99
2018-10-01T04:26:30.431Z,10.00
2018-10-01T04:27:30.401Z,10.07
2018-10-01T04:28:30.370Z,9.93
2018-10-01T04:29:30.341Z,9.97
2018-10-01T04:30:30.309Z,9.96
2018-10-01T04:31:30.277Z,9.99
2018-10-01T04:32:30.250Z,9.91
2018-10-01T04:33:30.217Z,9.82
2018-10-01T04:34:30.183Z,9.96
2018-10-01T04:35:30.156Z,9.81
2018-10-01T04:36:30.129Z,9.83
2018-10-01T04:37:30.094Z,9.82
2018-10-01T04:38:30.065Z,9.88
2018-10-01T04:39:30.034Z,9.96
2018-10-01T04:40:30.031Z,9.88
2018-10-01T04:41:29.973Z,9.93
2018-10-01T04:42:29.942Z,9.89
2018-10-01T04:43:29.911Z,9.94
2018-10-01T04:44:29.880Z,9.88
2018-10-01T04:45:29.851Z,9.96
2018-10-01T04:46:29.820Z,9.93
2018-10-01T04:47:29.788Z,9.97
2018-10-01T04:48:29.756Z,9.99
2018-10-01T04:49:29.728Z,10.04
2018-10-01T04:50:29.696Z,10.07
2018-10-01T04:51:29.664Z,10.07
2018-10-01T04:52:29.634Z,10.14
2018-10-01T04:53:29.604Z,10.12
2018-10-01T04:54:29.572Z,10.09
2018-10-01T04:55:29.544Z,10.15
2018-10-01T04:56:29.511Z,10.15
2018-10-01T04:57:29.480Z,10.24
2018-10-01T04:58:29.641Z,10.28
2018-10-01T04:59:29.421Z,10.21
2018-10-01T05:00:37.305Z,10.25
2018-10-01T05:02:23.003Z,10.22
2018-10-01T05:03:22.942Z,10.28
2018-10-01T05:05:16.061Z,10.22
2018-10-01T05:06:16.065Z,10.21
2018-10-01T05:08:08.830Z,10.32
2018-10-01T05:09:08.773Z,10.26
2018-10-01T05:11:01.891Z,10.30
2018-10-01T05:12:01.835Z,10.25
2018-10-01T05:13:55.156Z,10.36
2018-10-01T05:14:55.180Z,10.36
2018-10-01T05:16:47.924Z,10.33
2018-10-01T05:17:47.868Z,10.40
2018-10-01T05:19:40.669Z,10.40
2018-10-01T05:20:40.639Z,10.36
2018-10-01T05:21:40.606Z,10.40
2018-10-01T05:22:40.576Z,10.42
2018-10-01T05:23:40.545Z,10.47
2018-10-01T05:24:40.514Z,10.53
2018-10-01T05:25:40.484Z,10.44
2018-10-01T05:26:40.452Z,10.52
2018-10-01T05:27:40.423Z,10.47
2018-10-01T05:28:40.390Z,10.51
2018-10-01T05:29:40.361Z,10.43
2018-10-01T05:30:40.330Z,10.53
2018-10-01T05:31:40.301Z,10.44
2018-10-01T05:32:40.270Z,10.55
2018-10-01T05:33:40.239Z,10.43
2018-10-01T05:34:40.209Z,10.37
2018-10-01T05:35:40.178Z,10.39
2018-10-01T05:36:40.150Z,10.33
2018-10-01T05:37:40.133Z,10.34
2018-10-01T05:38:40.183Z,10.37
2018-10-01T05:39:40.056Z,10.51
2018-10-01T05:40:40.028Z,10.47
2018-10-01T05:41:40.000Z,10.51
2018-10-01T05:42:40.012Z,10.44
2018-10-01T05:43:40.023Z,10.52
2018-10-01T05:44:39.905Z,10.52
2018-10-01T05:45:39.872Z,10.60
2018-10-01T05:46:39.843Z,10.47
2018-10-01T05:47:39.812Z,10.51
2018-10-01T05:48:39.781Z,10.53
2018-10-01T05:49:39.752Z,10.59
2018-10-01T05:50:39.720Z,10.55
2018-10-01T05:51:40.272Z,10.62
2018-10-01T05:52:39.668Z,10.58
2018-10-01T05:53:40.276Z,10.52
2018-10-01T05:54:39.599Z,10.62
2018-10-01T05:55:39.568Z,10.44
2018-10-01T05:56:39.540Z,10.51
2018-10-01T05:57:39.569Z,10.42
2018-10-01T05:58:39.477Z,10.51
2018-10-01T05:59:39.447Z,10.51
2018-10-01T06:00:39.419Z,10.51
2018-10-01T06:01:39.385Z,10.52
2018-10-01T06:02:39.355Z,10.58
2018-10-01T06:03:39.325Z,10.55
2018-10-01T06:04:39.313Z,10.66
2018-10-01T06:05:39.264Z,10.66
2018-10-01T06:06:39.232Z,10.63
2018-10-01T06:07:39.205Z,10.66
2018-10-01T06:08:39.171Z,10.70
2018-10-01T06:09:39.143Z,10.83
2018-10-01T06:10:39.110Z,10.86
2018-10-01T06:11:39.082Z,10.84
2018-10-01T06:12:39.052Z,10.88
2018-10-01T06:13:39.021Z,10.99
2018-10-01T06:14:38.999Z,10.92
2018-10-01T06:16:38.929Z,10.96
2018-10-01T06:17:38.900Z,10.99
2018-10-01T06:18:38.869Z,11.03
2018-10-01T06:19:38.841Z,11.11
2018-10-01T06:20:38.809Z,11.13
2018-10-01T06:21:38.779Z,11.10
2018-10-01T06:22:38.748Z,11.13
2018-10-01T06:23:38.726Z,11.14
2018-10-01T06:24:39.282Z,11.14
2018-10-01T06:25:38.662Z,11.25
2018-10-01T06:26:38.630Z,11.28
2018-10-01T06:27:38.603Z,11.34
2018-10-01T06:28:38.569Z,11.43
2018-10-01T06:29:38.538Z,11.47
2018-10-01T06:30:38.511Z,11.43
2018-10-01T06:31:38.484Z,11.41
2018-10-01T06:32:38.451Z,11.49
2018-10-01T06:33:38.420Z,11.53
2018-10-01T06:34:38.390Z,11.57
2018-10-01T06:35:38.362Z,11.56
2018-10-01T06:36:38.331Z,11.68
2018-10-01T06:37:38.300Z,11.59
2018-10-01T06:38:38.274Z,11.61
2018-10-01T06:39:38.243Z,11.64
2018-10-01T06:40:38.212Z,11.62
2018-10-01T06:41:38.216Z,11.50
2018-10-01T06:42:38.154Z,11.52
2018-10-01T06:43:38.125Z,11.53
2018-10-01T06:44:38.095Z,11.54
2018-10-01T06:45:38.065Z,11.49
2018-10-01T06:46:38.037Z,11.41
2018-10-01T06:47:38.007Z,11.44
2018-10-01T06:48:37.976Z,11.57
2018-10-01T06:49:37.946Z,11.57
2018-10-01T06:50:37.924Z,11.64
2018-10-01T06:51:37.892Z,11.64
2018-10-01T06:52:37.857Z,11.57
2018-10-01T06:53:37.830Z,11.70
2018-10-01T06:54:37.801Z,11.77
2018-10-01T06:55:37.773Z,11.71
2018-10-01T06:56:37.741Z,11.70
2018-10-01T06:57:37.762Z,11.71
2018-10-01T06:58:37.762Z,11.67
2018-10-01T06:59:37.652Z,11.72
2018-10-01T07:00:37.649Z,11.72
2018-10-01T07:01:37.602Z,11.82
2018-10-01T07:02:37.618Z,11.82
2018-10-01T07:03:37.581Z,11.90
2018-10-01T07:04:37.560Z,11.87
2018-10-01T07:05:37.549Z,11.78
2018-10-01T07:06:37.475Z,11.77
2018-10-01T07:07:37.421Z,11.83
2018-10-01T07:08:37.383Z,11.77
2018-10-01T07:09:37.356Z,11.82
2018-10-01T07:10:37.331Z,11.74
2018-10-01T07:11:37.383Z,11.67
2018-10-01T07:12:37.279Z,11.49
2018-10-01T07:13:37.251Z,11.38
2018-10-01T07:14:37.210Z,11.35
2018-10-01T07:15:37.177Z,11.28
2018-10-01T07:16:37.154Z,11.17
2018-10-01T07:17:37.122Z,11.20
2018-10-01T07:18:37.088Z,11.14
2018-10-01T07:19:37.059Z,11.11
2018-10-01T07:20:37.030Z,11.14
2018-10-01T07:21:36.999Z,11.10
2018-10-01T07:22:37.014Z,11.17
2018-10-01T07:23:36.937Z,11.16
2018-10-01T07:24:36.915Z,11.16
2018-10-01T07:25:36.882Z,11.19
2018-10-01T07:26:36.853Z,11.29
2018-10-01T07:27:36.826Z,11.29
2018-10-01T07:28:36.791Z,11.34
2018-10-01T07:29:36.760Z,11.43
2018-10-01T07:30:36.734Z,11.50
2018-10-01T07:31:36.704Z,11.49
2018-10-01T07:32:36.673Z,11.38
2018-10-01T07:33:37.288Z,11.39
2018-10-01T07:34:36.613Z,11.50
2018-10-01T07:35:36.585Z,11.47
2018-10-01T07:36:36.556Z,11.59
2018-10-01T07:37:36.524Z,11.65
2018-10-01T07:38:36.497Z,11.68
2018-10-01T07:39:36.466Z,11.71
2018-10-01T07:40:36.437Z,11.71
2018-10-01T07:41:36.405Z,11.80
2018-10-01T07:42:36.377Z,11.77
2018-10-01T07:43:36.348Z,11.72
2018-10-01T07:44:36.362Z,11.83
2018-10-01T07:45:36.288Z,11.82
2018-10-01T07:46:36.260Z,11.71
2018-10-01T07:47:36.249Z,11.67
2018-10-01T07:48:36.209Z,11.67
2018-10-01T07:49:36.170Z,11.67
2018-10-01T07:50:36.175Z,11.75
2018-10-01T07:51:36.112Z,11.75
2018-10-01T07:52:36.083Z,11.71
2018-10-01T07:53:36.122Z,11.75
2018-10-01T07:54:36.025Z,11.85
2018-10-01T07:55:35.994Z,11.90
2018-10-01T07:56:35.966Z,11.94
2018-10-01T07:57:35.958Z,12.06
2018-10-01T07:58:35.909Z,11.96
2018-10-01T07:59:35.949Z,11.89
2018-10-01T08:00:35.847Z,11.89
2018-10-01T08:01:35.820Z,11.99
2018-10-01T08:02:35.857Z,11.93
2018-10-01T08:03:35.762Z,11.85
2018-10-01T08:04:35.731Z,11.99
2018-10-01T08:05:35.742Z,12.06
2018-10-01T08:06:35.673Z,12.12
2018-10-01T08:07:35.643Z,12.21
2018-10-01T08:08:35.667Z,12.24
2018-10-01T08:09:35.599Z,12.15
2018-10-01T08:10:36.297Z,12.23
2018-10-01T08:11:35.530Z,12.34
2018-10-01T08:12:35.499Z,12.34
2018-10-01T08:13:35.469Z,12.38
2018-10-01T08:14:35.487Z,12.57
2018-10-01T08:15:35.626Z,12.44
2018-10-01T08:16:35.479Z,12.34
2018-10-01T08:17:37.287Z,12.27
2018-10-01T08:18:35.324Z,12.34
2018-10-01T08:19:35.297Z,12.33
2018-10-01T08:20:35.355Z,12.27
2018-10-01T08:21:35.238Z,12.24
2018-10-01T08:22:35.210Z,12.30
2018-10-01T08:23:35.189Z,12.26
2018-10-01T08:24:35.151Z,12.19
2018-10-01T08:25:35.125Z,12.39
2018-10-01T08:26:35.190Z,12.46
2018-10-01T08:27:35.067Z,12.51
2018-10-01T08:28:35.037Z,12.56
2018-10-01T08:29:35.111Z,12.52
2018-10-01T08:30:34.979Z,12.56
2018-10-01T08:31:34.951Z,12.48
2018-10-01T08:32:34.952Z,12.48
2018-10-01T08:33:34.897Z,12.57
2018-10-01T08:34:34.864Z,12.66
2018-10-01T08:35:34.896Z,12.45
2018-10-01T08:36:34.805Z,12.45
2018-10-01T08:37:34.777Z,12.54
2018-10-01T08:38:34.870Z,12.60
2018-10-01T08:39:34.727Z,12.59
2018-10-01T08:40:34.695Z,12.56
2018-10-01T08:41:34.688Z,12.48
2018-10-01T08:42:34.633Z,12.51
2018-10-01T08:43:34.608Z,12.52
2018-10-01T08:44:34.637Z,12.46
2018-10-01T08:45:34.544Z,12.49
2018-10-01T08:46:35.304Z,12.39
2018-10-01T08:47:34.562Z,12.45
2018-10-01T08:48:34.460Z,12.41
2018-10-01T08:49:34.429Z,12.41
2018-10-01T08:50:34.439Z,12.31
2018-10-01T08:51:34.396Z,12.31
2018-10-01T08:52:34.348Z,12.27
2018-10-01T08:53:34.357Z,12.37
2018-10-01T08:54:34.283Z,12.42
2018-10-01T08:55:34.260Z,12.46
2018-10-01T08:56:34.297Z,12.54
2018-10-01T08:57:34.200Z,12.41
2018-10-01T08:58:34.174Z,12.44
2018-10-01T08:59:34.208Z,12.34
2018-10-01T09:00:34.116Z,12.34
2018-10-01T09:01:34.083Z,12.33
2018-10-01T09:02:34.114Z,12.33
2018-10-01T09:03:34.028Z,12.48
2018-10-01T09:04:34.013Z,12.49
2018-10-01T09:05:34.063Z,12.48
2018-10-01T09:06:33.937Z,12.49
2018-10-01T09:07:33.905Z,12.51
2018-10-01T09:08:33.912Z,12.48
2018-10-01T09:09:34.806Z,12.38
2018-10-01T09:10:33.820Z,12.39
2018-10-01T09:11:33.815Z,12.33
2018-10-01T09:12:33.764Z,12.33
2018-10-01T09:13:33.737Z,12.38
2018-10-01T09:14:33.859Z,12.54
2018-10-01T09:15:33.676Z,12.51
2018-10-01T09:16:33.648Z,12.63
2018-10-01T09:17:33.648Z,12.64
2018-10-01T09:18:33.591Z,12.52
2018-10-01T09:19:33.564Z,12.52
2018-10-01T09:20:33.569Z,12.56
2018-10-01T09:21:33.507Z,12.44
2018-10-01T09:22:33.496Z,12.52
2018-10-01T09:23:33.502Z,12.67
2018-10-01T09:24:33.415Z,12.70
2018-10-01T09:25:33.387Z,12.78
2018-10-01T09:26:33.369Z,12.75
2018-10-01T09:27:33.332Z,12.79
2018-10-01T09:28:33.299Z,12.84
2018-10-01T09:29:33.323Z,12.84
2018-10-01T09:30:33.242Z,12.84
2018-10-01T09:31:33.213Z,12.95
2018-10-01T09:32:33.242Z,12.95
2018-10-01T09:33:33.159Z,13.21
2018-10-01T09:34:33.127Z,13.14
2018-10-01T09:35:33.194Z,13.21
2018-10-01T09:36:33.069Z,13.03
2018-10-01T09:37:33.041Z,12.85
2018-10-01T09:38:33.075Z,12.89
2018-10-01T09:39:32.983Z,12.97
2018-10-01T09:40:32.985Z,12.99
2018-10-01T09:41:32.931Z,13.06
2018-10-01T09:42:32.901Z,13.03
2018-10-01T09:43:32.871Z,12.95
2018-10-01T09:44:32.914Z,13.04
2018-10-01T09:45:32.819Z,13.18
2018-10-01T09:46:32.833Z,13.33
2018-10-01T09:47:32.759Z,13.38
2018-10-01T09:48:32.730Z,13.33
2018-10-01T09:49:32.701Z,13.46
2018-10-01T09:50:32.732Z,13.49
2018-10-01T09:51:32.645Z,13.46
2018-10-01T09:52:32.662Z,13.29
2018-10-01T09:53:32.634Z,13.36
2018-10-01T09:54:32.561Z,13.33
2018-10-01T09:55:32.530Z,13.40
2018-10-01T09:56:32.557Z,13.46
2018-10-01T09:57:32.475Z,13.46
2018-10-01T09:58:32.501Z,13.46
2018-10-01T09:59:32.420Z,13.41
2018-10-01T10:00:32.392Z,13.51
2018-10-01T10:01:32.362Z,13.44
2018-10-01T10:02:32.356Z,13.29
2018-10-01T10:03:32.308Z,13.32
2018-10-01T10:04:32.396Z,13.38
2018-10-01T10:05:32.250Z,13.47
2018-10-01T10:06:32.224Z,13.54
2018-10-01T10:07:32.193Z,13.58
2018-10-01T10:08:32.284Z,13.55
2018-10-01T10:09:32.138Z,13.52
2018-10-01T10:10:32.158Z,13.54
2018-10-01T10:11:32.147Z,13.49
2018-10-01T10:12:32.054Z,13.44
2018-10-01T10:13:32.032Z,13.49
2018-10-01T10:14:32.083Z,13.46
2018-10-01T10:15:31.973Z,13.63
2018-10-01T10:16:31.998Z,13.65
2018-10-01T10:17:31.915Z,13.80
2018-10-01T10:18:31.887Z,13.71
2018-10-01T10:19:31.867Z,13.70
2018-10-01T10:20:31.886Z,13.67
2018-10-01T10:21:31.804Z,13.69
2018-10-01T10:22:31.782Z,13.63
2018-10-01T10:23:31.750Z,13.59
2018-10-01T10:24:31.730Z,13.76
2018-10-01T10:25:31.699Z,13.74
2018-10-01T10:26:31.694Z,13.84
2018-10-01T10:27:31.637Z,13.70
2018-10-01T10:28:31.629Z,13.71
2018-10-01T10:29:31.589Z,13.70
2018-10-01T10:30:31.610Z,13.94
2018-10-01T10:31:31.525Z,14.06
2018-10-01T10:32:31.554Z,14.17
2018-10-01T10:33:31.525Z,14.29
2018-10-01T10:34:31.563Z,14.39
2018-10-01T10:35:31.471Z,14.31
2018-10-01T10:36:31.387Z,14.24
2018-10-01T10:37:31.359Z,14.19
2018-10-01T10:38:31.378Z,14.14
2018-10-01T10:39:31.319Z,14.28
2018-10-01T10:40:31.279Z,14.17
2018-10-01T10:41:31.254Z,14.32
2018-10-01T10:42:31.292Z,14.19
2018-10-01T10:43:31.194Z,14.19
2018-10-01T10:44:31.227Z,14.09
2018-10-01T10:45:31.143Z,14.17
2018-10-01T10:46:31.112Z,14.19
2018-10-01T10:47:31.086Z,14.16
2018-10-01T10:48:31.082Z,14.31
2018-10-01T10:49:31.030Z,14.50
2018-10-01T10:50:34.045Z,14.61
2018-10-01T10:51:31.017Z,14.80
2018-10-01T10:52:30.952Z,14.80
2018-10-01T10:53:31.766Z,14.68
2018-10-01T10:54:30.895Z,14.71
2018-10-01T10:55:30.869Z,14.71
2018-10-01T10:57:30.835Z,14.90
2018-10-01T10:58:30.871Z,14.93
2018-10-01T10:59:30.938Z,14.78
2018-10-01T11:00:30.806Z,14.81
2018-10-01T11:01:30.731Z,14.93
2018-10-01T11:02:30.742Z,14.90
2018-10-01T11:03:30.655Z,14.81
2018-10-01T11:04:30.651Z,14.94
2018-10-01T11:06:30.945Z,14.86
2018-10-01T11:07:32.524Z,14.71
2018-10-01T11:08:30.789Z,14.44
2018-10-01T11:09:32.380Z,14.53
2018-10-01T11:10:30.836Z,14.61
2018-10-01T11:11:30.440Z,14.68
2018-10-01T11:12:30.433Z,14.54
2018-10-01T11:13:32.331Z,14.57
2018-10-01T11:14:30.388Z,14.56
2018-10-01T11:15:30.396Z,14.44
2018-10-01T11:16:30.315Z,14.38
2018-10-01T11:17:30.327Z,14.37
2018-10-01T11:18:30.314Z,14.25
2018-10-01T11:19:30.225Z,14.37
2018-10-01T11:20:30.262Z,14.44
2018-10-01T11:21:30.344Z,14.38
2018-10-01T11:22:30.152Z,14.27
2018-10-01T11:23:30.167Z,14.47
2018-10-01T11:24:30.252Z,14.17
2018-10-01T11:25:30.114Z,14.09
2018-10-01T11:26:30.056Z,13.79
2018-10-01T11:27:31.887Z,13.77
2018-10-01T11:28:29.999Z,13.58
2018-10-01T11:29:29.966Z,13.46
2018-10-01T11:30:30.829Z,13.54
2018-10-01T11:31:29.915Z,13.54
2018-10-01T11:32:29.871Z,13.61
2018-10-01T11:33:30.182Z,13.56
2018-10-01T11:34:34.644Z,13.69
2018-10-01T11:35:30.182Z,13.70
2018-10-01T11:36:33.653Z,13.79
2018-10-01T11:37:34.783Z,13.88
2018-10-01T11:38:29.706Z,14.09
2018-10-01T11:39:29.727Z,14.19
2018-10-01T11:40:29.697Z,14.31
2018-10-01T11:41:29.723Z,14.47
2018-10-01T11:42:29.592Z,14.74
2018-10-01T11:43:29.569Z,14.90
2018-10-01T11:44:29.542Z,14.91
2018-10-01T11:45:29.554Z,15.09
2018-10-01T11:46:29.485Z,15.17
2018-10-01T11:47:29.459Z,15.19
2018-10-01T11:48:29.433Z,15.28
2018-10-01T11:49:29.404Z,15.24
2018-10-01T11:50:29.381Z,15.30
2018-10-01T11:51:29.450Z,15.36
2018-10-01T11:52:29.361Z,15.35
2018-10-01T11:53:29.302Z,15.39
2018-10-01T11:54:29.338Z,15.35
2018-10-01T11:55:29.242Z,15.27
2018-10-01T11:56:29.218Z,15.36
2018-10-01T11:57:29.224Z,15.33
2018-10-01T11:58:29.162Z,15.31
2018-10-01T11:59:29.137Z,15.33
2018-10-01T12:00:29.108Z,15.42
2018-10-01T12:01:29.084Z,15.45
2018-10-01T12:02:29.058Z,15.49
2018-10-01T12:03:29.040Z,15.49
2018-10-01T12:04:29.004Z,15.67
2018-10-01T12:05:28.985Z,15.74
2018-10-01T12:06:28.956Z,15.82
2018-10-01T12:07:28.948Z,15.88
2018-10-01T12:08:28.904Z,15.85
2018-10-01T12:09:28.960Z,15.76
2018-10-01T12:10:28.981Z,15.85
2018-10-01T12:11:29.354Z,15.75
2018-10-01T12:12:28.797Z,15.72
2018-10-01T12:13:28.874Z,15.74
2018-10-01T12:14:28.741Z,15.51
2018-10-01T12:15:28.747Z,15.12
2018-10-01T12:16:28.691Z,15.05
2018-10-01T12:17:28.663Z,15.08
2018-10-01T12:18:28.637Z,15.28
2018-10-01T12:19:28.606Z,15.12
2018-10-01T12:20:28.583Z,15.08
2018-10-01T12:21:29.389Z,15.11
2018-10-01T12:22:29.347Z,15.24
2018-10-01T12:23:28.506Z,15.19
2018-10-01T12:24:28.479Z,15.19
2018-10-01T12:25:28.453Z,15.24
2018-10-01T12:26:29.343Z,15.26
2018-10-01T12:27:28.426Z,15.19
2018-10-01T12:28:28.372Z,15.23
2018-10-01T12:29:29.341Z,15.19
2018-10-01T12:30:28.321Z,15.19
2018-10-01T12:31:28.293Z,15.20
2018-10-01T12:32:28.264Z,15.20
2018-10-01T12:33:28.263Z,15.23
2018-10-01T12:34:28.216Z,14.95
2018-10-01T12:35:28.190Z,14.81
2018-10-01T12:36:28.160Z,14.78
2018-10-01T12:37:28.141Z,14.81
2018-10-01T12:38:28.110Z,14.81
2018-10-01T12:39:28.102Z,14.86
2018-10-01T12:40:28.070Z,14.94
2018-10-01T12:41:28.028Z,14.90
2018-10-01T12:42:28.025Z,14.81
2018-10-01T12:43:27.974Z,14.74
2018-10-01T12:44:27.962Z,14.68
2018-10-01T12:45:27.957Z,14.81
2018-10-01T12:46:27.993Z,14.91
2018-10-01T12:47:27.867Z,14.94
2018-10-01T12:48:27.841Z,14.74
2018-10-01T12:49:27.814Z,14.72
2018-10-01T12:50:27.887Z,14.72
2018-10-01T12:51:27.814Z,14.80
2018-10-01T12:52:27.736Z,14.86
2018-10-01T12:53:27.705Z,14.78
2018-10-01T12:54:27.758Z,14.93
2018-10-01T12:55:27.660Z,15.15
2018-10-01T12:56:27.666Z,15.13
2018-10-01T12:57:27.614Z,15.31
2018-10-01T12:58:27.569Z,15.41
2018-10-01T12:59:28.499Z,15.42
2018-10-01T13:00:27.514Z,15.38
2018-10-01T13:01:27.489Z,15.33
2018-10-01T13:02:27.565Z,15.27
2018-10-01T13:03:27.436Z,15.20
2018-10-01T13:04:27.414Z,15.23
2018-10-01T13:05:27.379Z,15.19
2018-10-01T13:06:27.470Z,15.24
2018-10-01T13:07:27.849Z,15.17